createdAt,value
2023-03-02T00:02:02.714Z,0.53
2023-03-02T00:04:35.100Z,0.63
2023-03-02T00:07:06.312Z,0.58
2023-03-02T00:09:37.665Z,0.64
2023-03-02T00:12:08.046Z,0.65
2023-03-02T00:14:38.858Z,0.54
2023-03-02T00:17:08.419Z,0.41
2023-03-02T00:19:37.212Z,0.52
2023-03-02T00:22:06.010Z,0.61
2023-03-02T00:24:35.340Z,0.60
2023-03-02T00:27:05.716Z,0.56
2023-03-02T00:29:35.523Z,0.62
2023-03-02T00:32:06.953Z,0.59
2023-03-02T00:34:35.901Z,0.57
2023-03-02T00:37:05.442Z,0.51
2023-03-02T00:39:34.139Z,0.55
2023-03-02T00:42:02.575Z,0.51
2023-03-02T00:44:31.501Z,0.47
2023-03-02T00:47:00.444Z,0.42
2023-03-02T00:49:31.274Z,0.61
2023-03-02T00:51:59.933Z,0.56
2023-03-02T00:54:28.948Z,0.44
2023-03-02T00:56:58.396Z,0.54
2023-03-02T00:59:30.313Z,0.55
2023-03-02T01:02:01.885Z,0.53
2023-03-02T01:04:35.932Z,0.45
2023-03-02T01:07:07.587Z,0.45
2023-03-02T01:09:36.225Z,0.37
2023-03-02T01:12:05.896Z,0.45
2023-03-02T01:14:34.639Z,0.39
2023-03-02T01:17:03.538Z,0.38
2023-03-02T01:19:34.539Z,0.36
2023-03-02T01:22:03.981Z,0.33
2023-03-02T01:24:33.908Z,0.37
2023-03-02T01:27:11.921Z,0.26
2023-03-02T01:29:41.107Z,0.36
2023-03-02T01:32:11.868Z,0.39
2023-03-02T01:34:41.718Z,0.34
2023-03-02T01:37:10.638Z,0.27
2023-03-02T01:39:40.097Z,0.31
2023-03-02T01:42:09.371Z,0.28
2023-03-02T01:44:42.530Z,0.29
2023-03-02T01:47:23.467Z,0.34
2023-03-02T01:49:58.679Z,0.26
2023-03-02T01:52:29.008Z,0.14
2023-03-02T01:55:00.670Z,0.26
2023-03-02T01:57:33.151Z,0.25
2023-03-02T02:00:11.064Z,0.22
2023-03-02T02:02:42.943Z,0.26
2023-03-02T02:05:17.370Z,0.25
2023-03-02T02:07:46.392Z,0.07
2023-03-02T02:10:16.676Z,0.14
2023-03-02T02:12:45.507Z,0.12
2023-03-02T02:15:14.679Z,0.03
2023-03-02T02:17:44.160Z,-0.03
2023-03-02T02:20:25.569Z,-0.05
2023-03-02T02:23:11.255Z,0.02
2023-03-02T02:25:50.078Z,-0.15
2023-03-02T02:28:24.588Z,-0.38
2023-03-02T02:31:08.595Z,-0.25
2023-03-02T02:33:41.386Z,-0.41
2023-03-02T02:36:17.450Z,-0.33
2023-03-02T02:38:49.657Z,-0.36
2023-03-02T02:41:24.066Z,-0.42
2023-03-02T02:43:56.133Z,-0.51
2023-03-02T02:46:26.937Z,-0.58
2023-03-02T02:48:56.062Z,-0.52
2023-03-02T02:51:29.152Z,-0.37
2023-03-02T02:54:01.658Z,-0.32
2023-03-02T02:56:34.584Z,-0.52
2023-03-02T02:59:09.356Z,-0.54
2023-03-02T03:01:37.887Z,-0.51
2023-03-02T03:04:08.040Z,-0.53
2023-03-02T03:06:42.750Z,-0.44
2023-03-02T03:09:12.809Z,-0.43
2023-03-02T03:11:45.436Z,-0.48
2023-03-02T03:14:17.138Z,-0.57
2023-03-02T03:16:48.342Z,-0.61
2023-03-02T03:19:21.497Z,-0.57
2023-03-02T03:21:53.443Z,-0.65
2023-03-02T03:24:22.979Z,-0.71
2023-03-02T03:26:51.755Z,-0.75
2023-03-02T03:29:24.530Z,-0.83
2023-03-02T03:31:53.665Z,-0.83
2023-03-02T03:34:24.357Z,-0.74
2023-03-02T03:36:55.167Z,-0.65
2023-03-02T03:39:23.817Z,-0.46
2023-03-02T03:41:52.723Z,-0.49
2023-03-02T03:44:23.375Z,-0.38
2023-03-02T03:46:52.048Z,-0.32
2023-03-02T03:49:22.041Z,-0.41
2023-03-02T03:51:52.778Z,-0.30
2023-03-02T03:54:22.787Z,-0.31
2023-03-02T03:56:52.410Z,-0.32
2023-03-02T03:59:24.776Z,-0.35
2023-03-02T04:01:55.505Z,-0.41
2023-03-02T04:04:27.906Z,-0.40
2023-03-02T04:06:56.707Z,-0.28
2023-03-02T04:09:26.276Z,-0.11
2023-03-02T04:11:57.886Z,-0.18
2023-03-02T04:14:28.831Z,-0.05
2023-03-02T04:16:58.413Z,0.12
2023-03-02T04:19:27.511Z,0.32
2023-03-02T04:21:59.180Z,0.36
2023-03-02T04:24:28.108Z,0.40
2023-03-02T04:26:58.391Z,0.39
2023-03-02T04:29:32.837Z,0.27
2023-03-02T04:32:01.551Z,0.30
2023-03-02T04:34:30.591Z,0.39
2023-03-02T04:36:59.061Z,0.33
2023-03-02T04:39:27.877Z,0.56
2023-03-02T04:41:57.114Z,0.53
2023-03-02T04:44:25.568Z,0.50
2023-03-02T04:46:55.521Z,0.52
2023-03-02T04:49:24.103Z,0.45
2023-03-02T04:51:53.325Z,0.36
2023-03-02T04:54:24.984Z,0.42
2023-03-02T04:56:56.112Z,0.41
2023-03-02T04:59:27.363Z,0.40
2023-03-02T05:02:00.486Z,0.40
2023-03-02T05:04:31.751Z,0.42
2023-03-02T05:07:02.169Z,0.41
2023-03-02T05:09:31.083Z,0.37
2023-03-02T05:12:02.932Z,0.23
2023-03-02T05:14:32.609Z,0.28
2023-03-02T05:17:03.572Z,0.27
2023-03-02T05:19:33.393Z,0.19
2023-03-02T05:22:01.930Z,0.13
2023-03-02T05:24:30.735Z,0.08
2023-03-02T05:27:00.152Z,0.05
2023-03-02T05:29:29.250Z,-0.03
2023-03-02T05:31:58.142Z,-0.19
2023-03-02T05:34:29.379Z,-0.32
2023-03-02T05:37:00.839Z,-0.18
2023-03-02T05:39:30.270Z,-0.14
2023-03-02T05:41:59.816Z,-0.24
2023-03-02T05:44:28.869Z,-0.21
2023-03-02T05:46:58.221Z,-0.07
2023-03-02T05:49:29.017Z,-0.15
2023-03-02T05:51:57.269Z,0.02
2023-03-02T05:54:26.065Z,-0.07
2023-03-02T05:56:54.351Z,-0.08
2023-03-02T05:59:23.546Z,-0.05
2023-03-02T06:01:55.180Z,0.04
2023-03-02T06:04:24.508Z,0.20
2023-03-02T06:06:54.968Z,0.10
2023-03-02T06:09:23.953Z,0.11
2023-03-02T06:11:53.958Z,0.20
2023-03-02T06:14:22.319Z,0.19
2023-03-02T06:16:51.699Z,0.35
2023-03-02T06:19:20.020Z,0.46
2023-03-02T06:21:51.897Z,0.57
2023-03-02T06:24:23.404Z,0.57
2023-03-02T06:26:54.370Z,0.62
2023-03-02T06:29:23.168Z,0.60
2023-03-02T06:31:52.109Z,0.61
2023-03-02T06:34:21.208Z,0.57
2023-03-02T06:36:50.388Z,0.64
2023-03-02T06:39:18.714Z,0.67
2023-03-02T06:41:50.153Z,0.81
2023-03-02T06:44:20.234Z,0.81
2023-03-02T06:46:51.595Z,0.78
2023-03-02T06:49:20.341Z,0.92
2023-03-02T06:51:49.196Z,0.89
2023-03-02T06:54:17.935Z,0.91
2023-03-02T06:56:48.095Z,0.97
2023-03-02T06:59:17.559Z,0.98
2023-03-02T07:01:47.276Z,0.97
2023-03-02T07:04:16.112Z,1.04
2023-03-02T07:06:44.694Z,1.11
2023-03-02T07:09:13.380Z,1.16
2023-03-02T07:11:42.172Z,1.15
2023-03-02T07:14:12.009Z,1.23
2023-03-02T07:16:40.853Z,1.21
2023-03-02T07:19:13.621Z,1.33
2023-03-02T07:21:42.360Z,1.45
2023-03-02T07:24:12.085Z,1.44
2023-03-02T07:26:40.770Z,1.49
2023-03-02T07:29:10.093Z,1.61
2023-03-02T07:31:40.401Z,1.64
2023-03-02T07:34:09.214Z,1.69
2023-03-02T07:36:39.774Z,1.83
2023-03-02T07:39:08.418Z,1.89
2023-03-02T07:41:38.333Z,2.00
2023-03-02T07:44:07.870Z,1.96
2023-03-02T07:46:36.565Z,2.16
2023-03-02T07:49:07.024Z,2.11
2023-03-02T07:51:35.658Z,2.12
2023-03-02T07:54:05.193Z,2.26
2023-03-02T07:56:34.394Z,2.36
2023-03-02T07:59:04.475Z,2.49
2023-03-02T08:01:34.392Z,2.59
2023-03-02T08:04:04.787Z,2.67
2023-03-02T08:06:37.158Z,2.72
2023-03-02T08:09:07.957Z,2.80
2023-03-02T08:11:36.746Z,2.84
2023-03-02T08:14:06.211Z,2.94
2023-03-02T08:16:35.631Z,3.10
2023-03-02T08:19:05.319Z,3.02
2023-03-02T08:21:35.577Z,3.12
2023-03-02T08:24:05.125Z,3.13
2023-03-02T08:26:34.875Z,3.17
2023-03-02T08:29:03.561Z,3.14
2023-03-02T08:31:34.197Z,3.38
2023-03-02T08:34:02.962Z,3.39
2023-03-02T08:36:32.055Z,3.35
2023-03-02T08:39:03.034Z,3.61
2023-03-02T08:41:32.462Z,3.52
2023-03-02T08:44:01.397Z,3.67
2023-03-02T08:46:33.752Z,3.76
2023-03-02T08:49:03.635Z,3.85
2023-03-02T08:51:32.777Z,3.92
2023-03-02T08:54:03.048Z,3.88
2023-03-02T08:56:34.224Z,3.94
2023-03-02T08:59:04.952Z,3.88
2023-03-02T09:01:36.041Z,4.00
2023-03-02T09:04:07.459Z,4.20
2023-03-02T09:06:37.902Z,4.15
2023-03-02T09:09:09.440Z,4.34
2023-03-02T09:11:38.432Z,4.59
2023-03-02T09:14:09.292Z,4.41
2023-03-02T09:16:38.193Z,4.59
2023-03-02T09:19:07.625Z,4.62
2023-03-02T09:21:36.387Z,4.58
2023-03-02T09:24:05.150Z,4.76
2023-03-02T09:26:36.094Z,4.89
2023-03-02T09:29:04.842Z,4.99
2023-03-02T09:31:34.093Z,5.03
2023-03-02T09:34:03.564Z,5.14
2023-03-02T09:36:33.097Z,5.17
2023-03-02T09:39:04.156Z,5.29
2023-03-02T09:42:01.904Z,5.45
2023-03-02T09:45:21.450Z,5.66
2023-03-02T09:48:02.420Z,5.71
2023-03-02T09:50:34.296Z,5.66
2023-03-02T09:53:21.430Z,5.72
2023-03-02T09:55:55.608Z,5.62
2023-03-02T09:58:30.340Z,5.61
2023-03-02T10:01:02.266Z,5.72
2023-03-02T10:03:39.262Z,5.64
2023-03-02T10:06:07.663Z,5.89
2023-03-02T10:08:37.912Z,5.86
2023-03-02T10:11:15.569Z,6.03
2023-03-02T10:13:50.993Z,5.98
2023-03-02T10:16:32.770Z,6.31
2023-03-02T10:19:12.253Z,6.33
2023-03-02T10:21:43.540Z,6.55
2023-03-02T10:24:23.042Z,6.60
2023-03-02T10:26:55.120Z,6.58
2023-03-02T10:29:45.458Z,6.75
2023-03-02T10:32:23.585Z,6.70
2023-03-02T10:34:56.003Z,6.82
2023-03-02T10:37:26.965Z,6.82
2023-03-02T10:39:56.139Z,6.67
2023-03-02T10:42:30.405Z,6.98
2023-03-02T10:45:09.963Z,7.04
2023-03-02T10:47:38.958Z,7.16
2023-03-02T10:50:23.838Z,7.12
2023-03-02T10:52:59.968Z,7.34
2023-03-02T10:55:29.533Z,7.49
2023-03-02T10:58:03.542Z,7.50
2023-03-02T11:00:34.064Z,7.61
2023-03-02T11:03:04.383Z,7.50
2023-03-02T11:05:35.618Z,7.41
2023-03-02T11:08:06.464Z,7.71
2023-03-02T11:10:38.346Z,7.68
2023-03-02T11:13:19.804Z,7.98
2023-03-02T11:15:51.811Z,8.16
2023-03-02T11:18:27.956Z,7.96
2023-03-02T11:21:00.554Z,8.11
2023-03-02T11:23:37.997Z,8.35
2023-03-02T11:26:15.334Z,8.44
2023-03-02T11:28:52.931Z,8.45
2023-03-02T11:31:40.264Z,8.48
2023-03-02T11:34:18.725Z,8.48
2023-03-02T11:37:01.127Z,8.66
2023-03-02T11:39:46.527Z,8.76
2023-03-02T11:42:32.275Z,8.83
2023-03-02T11:45:05.070Z,8.92
2023-03-02T11:47:38.479Z,8.79
2023-03-02T11:50:12.111Z,8.93
2023-03-02T11:52:46.916Z,8.87
2023-03-02T11:55:20.848Z,9.00
2023-03-02T11:57:54.419Z,9.12
2023-03-02T12:00:31.931Z,9.04
2023-03-02T12:03:05.532Z,9.12
2023-03-02T12:05:37.824Z,9.18
2023-03-02T12:08:09.220Z,9.14
2023-03-02T12:10:41.620Z,9.27
2023-03-02T12:13:21.085Z,9.20
2023-03-02T12:15:52.544Z,9.41
2023-03-02T12:18:46.816Z,9.49
2023-03-02T12:21:19.150Z,9.20
2023-03-02T12:24:01.681Z,9.39
2023-03-02T12:26:37.005Z,9.48
2023-03-02T12:29:23.702Z,9.58
2023-03-02T12:31:55.082Z,9.46
2023-03-02T12:34:41.447Z,9.54
2023-03-02T12:37:18.938Z,9.47
2023-03-02T12:40:17.697Z,9.51
2023-03-02T12:43:01.521Z,9.59
2023-03-02T12:45:43.661Z,9.85
2023-03-02T12:48:26.802Z,9.81
2023-03-02T12:51:05.017Z,9.85
2023-03-02T12:53:34.162Z,9.72
2023-03-02T12:56:02.837Z,9.80
2023-03-02T12:58:32.921Z,9.60
2023-03-02T13:01:06.209Z,9.67
2023-03-02T13:03:35.525Z,9.72
2023-03-02T13:06:16.321Z,9.75
2023-03-02T13:08:48.638Z,9.79
2023-03-02T13:11:31.730Z,9.70
2023-03-02T13:14:01.580Z,9.88
2023-03-02T13:16:34.125Z,9.92
2023-03-02T13:19:06.058Z,9.86
2023-03-02T13:21:39.158Z,9.92
2023-03-02T13:24:28.448Z,10.08
2023-03-02T13:27:01.245Z,9.98
2023-03-02T13:29:39.865Z,10.05
2023-03-02T13:32:20.781Z,10.06
2023-03-02T13:34:52.473Z,9.99
2023-03-02T13:37:29.359Z,9.98
2023-03-02T13:40:00.092Z,9.82
2023-03-02T13:42:36.181Z,10.02
2023-03-02T13:45:23.173Z,9.93
2023-03-02T13:47:51.861Z,9.88
2023-03-02T13:50:23.891Z,10.00
2023-03-02T13:52:55.564Z,10.14
2023-03-02T13:55:25.379Z,10.04
2023-03-02T13:57:56.009Z,9.98
2023-03-02T14:00:33.100Z,9.97
2023-03-02T14:03:02.580Z,10.08
2023-03-02T14:05:33.689Z,9.84
2023-03-02T14:08:04.382Z,10.07
2023-03-02T14:10:35.225Z,10.03
2023-03-02T14:13:07.723Z,10.06
2023-03-02T14:15:41.906Z,10.09
2023-03-02T14:18:26.698Z,10.06
2023-03-02T14:20:55.410Z,9.99
2023-03-02T14:23:27.913Z,10.08
2023-03-02T14:25:58.597Z,9.94
2023-03-02T14:28:32.184Z,10.06
2023-03-02T14:31:01.432Z,9.96
2023-03-02T14:33:32.291Z,9.95
2023-03-02T14:36:02.614Z,10.00
2023-03-02T14:38:33.880Z,10.12
2023-03-02T14:41:02.973Z,10.08
2023-03-02T14:43:31.856Z,10.18
2023-03-02T14:46:00.526Z,10.08
2023-03-02T14:48:28.851Z,10.08
2023-03-02T14:51:00.834Z,9.99
2023-03-02T14:53:36.439Z,10.07
2023-03-02T14:56:07.359Z,10.01
2023-03-02T14:58:37.489Z,10.02
2023-03-02T15:01:06.396Z,10.06
2023-03-02T15:03:36.602Z,10.07
2023-03-02T15:06:07.608Z,9.99
2023-03-02T15:08:38.587Z,10.09
2023-03-02T15:11:07.550Z,9.93
2023-03-02T15:13:36.769Z,9.93
2023-03-02T15:16:05.398Z,9.96
2023-03-02T15:18:34.762Z,9.87
2023-03-02T15:21:03.528Z,9.79
2023-03-02T15:23:31.860Z,9.82
2023-03-02T15:26:03.015Z,9.77
2023-03-02T15:28:31.804Z,9.90
2023-03-02T15:31:09.405Z,9.85
2023-03-02T15:33:38.171Z,9.99
2023-03-02T15:36:07.807Z,9.88
2023-03-02T15:38:38.372Z,9.93
2023-03-02T15:41:10.454Z,9.90
2023-03-02T15:43:39.837Z,9.95
2023-03-02T15:46:09.541Z,9.83
2023-03-02T15:48:38.787Z,9.86
2023-03-02T15:51:09.183Z,9.81
2023-03-02T15:53:40.497Z,9.76
2023-03-02T15:56:12.158Z,9.74
2023-03-02T15:58:41.313Z,9.72
2023-03-02T16:01:10.770Z,9.57
2023-03-02T16:03:43.153Z,9.58
2023-03-02T16:06:13.424Z,9.50
2023-03-02T16:08:42.012Z,9.52
2023-03-02T16:11:18.737Z,9.54
2023-03-02T16:13:53.664Z,9.34
2023-03-02T16:16:23.179Z,9.21
2023-03-02T16:18:52.737Z,9.24
2023-03-02T16:21:22.314Z,9.34
2023-03-02T16:23:52.852Z,9.18
2023-03-02T16:26:24.375Z,9.07
2023-03-02T16:28:53.201Z,9.01
2023-03-02T16:31:27.384Z,9.01
2023-03-02T16:33:57.894Z,8.92
2023-03-02T16:36:27.892Z,8.87
2023-03-02T16:38:57.895Z,8.75
2023-03-02T16:41:28.154Z,8.82
2023-03-02T16:43:59.216Z,8.65
2023-03-02T16:46:31.245Z,8.67
2023-03-02T16:49:00.523Z,8.51
2023-03-02T16:51:29.027Z,8.46
2023-03-02T16:53:58.148Z,8.49
2023-03-02T16:56:28.858Z,8.39
2023-03-02T16:59:00.130Z,8.28
2023-03-02T17:01:29.527Z,8.24
2023-03-02T17:03:58.308Z,8.05
2023-03-02T17:06:28.142Z,8.04
2023-03-02T17:08:56.970Z,7.89
2023-03-02T17:11:25.566Z,7.89
2023-03-02T17:13:56.515Z,7.73
2023-03-02T17:16:25.419Z,7.62
2023-03-02T17:18:54.834Z,7.67
2023-03-02T17:21:25.895Z,7.68
2023-03-02T17:23:55.005Z,7.39
2023-03-02T17:26:24.111Z,7.19
2023-03-02T17:28:54.652Z,7.25
2023-03-02T17:31:25.966Z,7.26
2023-03-02T17:33:56.849Z,7.11
2023-03-02T17:36:26.025Z,6.95
2023-03-02T17:38:56.025Z,7.05
2023-03-02T17:41:24.828Z,7.13
2023-03-02T17:43:53.830Z,7.12
2023-03-02T17:46:25.676Z,7.09
2023-03-02T17:48:57.669Z,6.96
2023-03-02T17:51:28.549Z,7.04
2023-03-02T17:53:59.375Z,6.98
2023-03-02T17:56:29.138Z,6.94
2023-03-02T17:58:59.249Z,6.78
2023-03-02T18:01:31.026Z,6.67
2023-03-02T18:04:00.389Z,6.54
2023-03-02T18:06:30.141Z,6.47
2023-03-02T18:09:00.603Z,6.24
2023-03-02T18:11:31.439Z,6.20
2023-03-02T18:14:02.479Z,6.19
2023-03-02T18:16:36.518Z,6.12
2023-03-02T18:19:05.711Z,6.15
2023-03-02T18:21:35.592Z,6.01
2023-03-02T18:24:32.074Z,5.95
2023-03-02T18:27:01.769Z,5.66
2023-03-02T18:29:30.282Z,5.67
2023-03-02T18:32:03.216Z,5.65
2023-03-02T18:34:32.345Z,5.59
2023-03-02T18:37:00.921Z,5.46
2023-03-02T18:39:31.976Z,5.49
2023-03-02T18:42:04.099Z,5.43
2023-03-02T18:44:35.784Z,5.36
2023-03-02T18:47:08.266Z,5.23
2023-03-02T18:49:39.096Z,5.50
2023-03-02T18:52:07.989Z,5.80
2023-03-02T18:54:38.166Z,5.70
2023-03-02T18:57:09.872Z,5.46
2023-03-02T18:59:38.763Z,5.28
2023-03-02T19:02:10.694Z,4.98
2023-03-02T19:04:41.489Z,4.93
2023-03-02T19:07:12.142Z,4.86
2023-03-02T19:09:42.860Z,4.79
2023-03-02T19:12:16.053Z,4.72
2023-03-02T19:14:45.067Z,4.77
2023-03-02T19:17:15.647Z,4.65
2023-03-02T19:19:46.790Z,4.62
2023-03-02T19:22:16.830Z,4.59
2023-03-02T19:24:48.199Z,4.68
2023-03-02T19:27:18.017Z,5.10
2023-03-02T19:29:46.894Z,5.04
2023-03-02T19:32:20.510Z,4.93
2023-03-02T19:34:51.452Z,4.93
2023-03-02T19:37:20.212Z,4.92
2023-03-02T19:39:50.071Z,4.95
2023-03-02T19:42:19.230Z,4.90
2023-03-02T19:44:47.717Z,5.28
2023-03-02T19:47:19.550Z,5.17
2023-03-02T19:49:48.709Z,5.23
2023-03-02T19:52:17.476Z,5.61
2023-03-02T19:54:54.925Z,5.50
2023-03-02T19:57:25.601Z,5.43
2023-03-02T19:59:55.702Z,5.41
2023-03-02T20:02:28.674Z,5.62
2023-03-02T20:04:57.673Z,5.59
2023-03-02T20:07:32.446Z,5.52
2023-03-02T20:10:01.135Z,5.52
2023-03-02T20:12:31.381Z,5.47
2023-03-02T20:15:00.010Z,5.46
2023-03-02T20:17:30.579Z,5.33
2023-03-02T20:20:01.484Z,5.16
2023-03-02T20:22:31.049Z,4.99
2023-03-02T20:25:00.173Z,4.89
2023-03-02T20:27:31.336Z,4.59
2023-03-02T20:30:00.089Z,4.54
2023-03-02T20:32:30.101Z,4.41
2023-03-02T20:35:00.138Z,4.32
2023-03-02T20:37:30.300Z,4.23
2023-03-02T20:39:59.849Z,4.06
2023-03-02T20:42:31.764Z,4.01
2023-03-02T20:45:02.553Z,3.74
2023-03-02T20:47:33.059Z,3.75
2023-03-02T20:50:02.574Z,3.69
2023-03-02T20:52:33.160Z,3.64
2023-03-02T20:55:02.364Z,3.58
2023-03-02T20:57:32.508Z,3.49
2023-03-02T21:00:01.758Z,3.41
2023-03-02T21:02:32.504Z,3.39
2023-03-02T21:05:01.619Z,3.33
2023-03-02T21:07:30.843Z,3.30
2023-03-02T21:09:59.739Z,3.27
2023-03-02T21:12:28.490Z,3.38
2023-03-02T21:14:57.652Z,3.47
2023-03-02T21:17:27.414Z,3.45
2023-03-02T21:19:58.492Z,3.33
2023-03-02T21:22:29.052Z,3.30
2023-03-02T21:24:58.734Z,3.34
2023-03-02T21:27:27.395Z,3.22
2023-03-02T21:29:56.957Z,3.09
2023-03-02T21:32:26.864Z,2.99
2023-03-02T21:34:58.519Z,2.99
2023-03-02T21:37:27.480Z,3.03
2023-03-02T21:39:56.884Z,2.91
2023-03-02T21:42:25.297Z,2.82
2023-03-02T21:44:55.869Z,2.69
2023-03-02T21:47:25.470Z,2.83
2023-03-02T21:49:57.227Z,2.70
2023-03-02T21:52:28.099Z,2.80
2023-03-02T21:54:56.888Z,2.80
2023-03-02T21:57:26.722Z,2.66
2023-03-02T21:59:56.171Z,2.65
2023-03-02T22:02:25.076Z,2.53
2023-03-02T22:04:55.008Z,2.30
2023-03-02T22:07:25.481Z,2.49
2023-03-02T22:09:54.647Z,2.49
2023-03-02T22:12:24.637Z,2.44
2023-03-02T22:14:54.885Z,2.31
2023-03-02T22:17:25.000Z,2.39
2023-03-02T22:19:55.087Z,2.34
2023-03-02T22:22:30.590Z,2.21
2023-03-02T22:24:59.784Z,2.11
2023-03-02T22:27:30.550Z,2.29
2023-03-02T22:30:01.894Z,2.17
2023-03-02T22:32:32.649Z,2.11
2023-03-02T22:35:03.476Z,2.17
2023-03-02T22:37:35.973Z,2.11
2023-03-02T22:40:18.350Z,1.98
2023-03-02T22:42:47.135Z,2.03
2023-03-02T22:45:18.387Z,2.08
2023-03-02T22:47:51.941Z,2.03
2023-03-02T22:50:23.571Z,1.96
2023-03-02T22:52:55.794Z,2.01
2023-03-02T22:55:38.062Z,1.96
2023-03-02T22:58:33.176Z,1.92
2023-03-02T23:01:03.475Z,1.89
2023-03-02T23:03:40.236Z,1.89
2023-03-02T23:06:28.552Z,1.84
2023-03-02T23:09:00.796Z,1.73
2023-03-02T23:11:31.771Z,1.67
2023-03-02T23:14:04.282Z,1.68
2023-03-02T23:16:37.150Z,1.60
2023-03-02T23:19:06.654Z,1.61
2023-03-02T23:21:40.351Z,1.49
2023-03-02T23:24:11.400Z,1.49
2023-03-02T23:26:40.288Z,1.52
2023-03-02T23:29:11.178Z,1.41
2023-03-02T23:31:40.375Z,1.44
2023-03-02T23:34:09.126Z,1.39
2023-03-02T23:36:39.956Z,1.30
2023-03-02T23:39:12.080Z,1.16
2023-03-02T23:41:41.783Z,1.34
2023-03-02T23:44:10.796Z,1.27
2023-03-02T23:46:40.054Z,1.22
2023-03-02T23:49:09.550Z,1.17
2023-03-02T23:51:38.491Z,1.08
2023-03-02T23:54:07.615Z,0.95
2023-03-02T23:56:39.098Z,0.94
2023-03-02T23:59:08.240Z,0.89
